createdAt,value
2017-11-22T00:01:35.384Z,12.53
2017-11-22T00:04:02.852Z,8.70
2017-11-22T00:06:30.305Z,6.93
2017-11-22T00:08:57.788Z,10.60
2017-11-22T00:11:26.018Z,12.17
2017-11-22T00:13:53.483Z,12.73
2017-11-22T00:16:20.946Z,14.50
2017-11-22T00:18:48.412Z,12.07
2017-11-22T00:21:15.872Z,13.23
2017-11-22T00:23:43.363Z,12.00
2017-11-22T00:26:10.822Z,12.27
2017-11-22T00:28:38.276Z,12.00
2017-11-22T00:31:05.753Z,16.47
2017-11-22T00:33:33.210Z,12.57
2017-11-22T00:36:00.680Z,11.73
2017-11-22T00:38:28.146Z,5.70
2017-11-22T00:40:55.612Z,11.37
2017-11-22T00:43:23.067Z,10.23
2017-11-22T00:45:50.546Z,12.60
2017-11-22T00:48:18.001Z,9.00
2017-11-22T00:50:45.473Z,11.67
2017-11-22T00:53:13.701Z,11.43
2017-11-22T00:55:41.232Z,7.20
2017-11-22T00:58:08.684Z,10.93
2017-11-22T01:00:36.153Z,10.60
2017-11-22T01:03:03.609Z,9.80
2017-11-22T01:05:31.088Z,10.00
2017-11-22T01:07:58.539Z,8.53
2017-11-22T01:10:26.005Z,10.57
2017-11-22T01:12:53.462Z,7.70
2017-11-22T01:15:20.929Z,11.40
2017-11-22T01:17:48.393Z,11.33
2017-11-22T01:20:15.862Z,8.27
2017-11-22T01:22:44.089Z,9.20
2017-11-22T01:25:11.560Z,9.50
2017-11-22T01:27:39.013Z,9.30
2017-11-22T01:30:06.485Z,8.87
2017-11-22T01:32:33.952Z,11.20
2017-11-22T01:35:01.425Z,7.77
2017-11-22T01:37:30.273Z,9.63
2017-11-22T01:39:57.740Z,5.37
2017-11-22T01:42:25.202Z,6.77
2017-11-22T01:44:52.665Z,7.23
2017-11-22T01:47:20.145Z,8.63
2017-11-22T01:49:48.373Z,9.90
2017-11-22T01:52:15.873Z,7.70
2017-11-22T01:54:43.308Z,8.43
2017-11-22T01:57:10.780Z,9.00
2017-11-22T01:59:38.236Z,10.27
2017-11-22T02:02:05.720Z,7.67
2017-11-22T02:04:33.941Z,9.67
2017-11-22T02:07:01.411Z,9.73
2017-11-22T02:09:28.868Z,7.43
2017-11-22T02:11:56.356Z,9.13
2017-11-22T02:14:24.590Z,8.13
2017-11-22T02:16:52.056Z,7.80
2017-11-22T02:19:19.508Z,8.47
2017-11-22T02:21:46.985Z,10.50
2017-11-22T02:24:14.691Z,7.43
2017-11-22T02:26:42.159Z,7.90
2017-11-22T02:29:09.621Z,8.90
2017-11-22T02:31:37.090Z,9.10
2017-11-22T02:34:04.552Z,8.53
2017-11-22T02:36:32.038Z,10.03
2017-11-22T02:39:00.269Z,7.67
2017-11-22T02:41:27.810Z,9.03
2017-11-22T02:43:55.272Z,9.07
2017-11-22T02:46:22.738Z,7.77
2017-11-22T02:48:50.209Z,5.87
2017-11-22T02:51:17.672Z,7.43
2017-11-22T02:53:45.153Z,9.03
2017-11-22T02:56:13.398Z,8.43
2017-11-22T02:58:40.880Z,10.57
2017-11-22T03:01:08.334Z,2.80
2017-11-22T03:03:35.812Z,7.00
2017-11-22T03:06:04.028Z,6.17
2017-11-22T03:08:31.500Z,8.10
2017-11-22T03:10:58.970Z,5.97
2017-11-22T03:13:26.436Z,8.33
2017-11-22T03:15:53.901Z,7.70
2017-11-22T03:18:21.374Z,7.60
2017-11-22T03:20:48.829Z,6.13
2017-11-22T03:23:17.073Z,6.20
2017-11-22T03:25:44.539Z,6.93
2017-11-22T03:28:12.011Z,6.97
2017-11-22T03:30:39.472Z,7.30
2017-11-22T03:33:07.722Z,7.53
2017-11-22T03:35:35.181Z,7.00
2017-11-22T03:38:03.468Z,6.50
2017-11-22T03:40:30.934Z,6.50
2017-11-22T03:42:59.170Z,4.60
2017-11-22T03:45:26.632Z,5.43
2017-11-22T03:47:54.097Z,7.57
2017-11-22T03:50:27.173Z,5.00
2017-11-22T03:53:00.242Z,6.17
2017-11-22T03:55:27.705Z,7.27
2017-11-22T03:57:59.090Z,5.90
2017-11-22T04:00:29.510Z,6.50
2017-11-22T04:03:02.593Z,8.10
2017-11-22T04:05:33.040Z,6.40
2017-11-22T04:08:00.505Z,7.90
2017-11-22T04:10:28.745Z,6.30
2017-11-22T04:12:56.221Z,8.20
2017-11-22T04:15:23.690Z,6.37
2017-11-22T04:17:54.908Z,4.77
2017-11-22T04:20:28.017Z,6.60
2017-11-22T04:22:55.470Z,7.20
2017-11-22T04:25:22.953Z,6.67
2017-11-22T04:27:51.178Z,5.43
2017-11-22T04:30:18.639Z,3.23
2017-11-22T04:32:46.860Z,6.73
2017-11-22T04:35:14.329Z,7.23
2017-11-22T04:37:41.795Z,6.60
2017-11-22T04:40:09.281Z,7.73
2017-11-22T04:42:36.745Z,9.53
2017-11-22T04:45:04.213Z,6.00
2017-11-22T04:47:31.672Z,6.83
2017-11-22T04:49:59.142Z,7.87
2017-11-22T04:52:27.379Z,7.43
2017-11-22T04:54:54.857Z,8.03
2017-11-22T04:57:22.322Z,8.40
2017-11-22T04:59:49.801Z,8.00
2017-11-22T05:02:18.027Z,7.57
2017-11-22T05:04:45.499Z,8.23
2017-11-22T05:07:12.958Z,4.83
2017-11-22T05:09:40.430Z,8.90
2017-11-22T05:12:07.894Z,6.53
2017-11-22T05:14:36.126Z,6.37
2017-11-22T05:17:03.599Z,5.80
2017-11-22T05:19:31.055Z,5.20
2017-11-22T05:21:58.525Z,4.30
2017-11-22T05:24:25.986Z,7.53
2017-11-22T05:26:53.458Z,5.03
2017-11-22T05:29:21.677Z,6.77
2017-11-22T05:31:49.160Z,7.47
2017-11-22T05:34:16.620Z,7.50
2017-11-22T05:36:44.101Z,7.40
2017-11-22T05:39:12.320Z,5.27
2017-11-22T05:41:39.796Z,7.90
2017-11-22T05:44:07.258Z,8.10
2017-11-22T05:46:34.742Z,7.80
2017-11-22T05:49:02.201Z,10.17
2017-11-22T05:51:30.443Z,8.77
2017-11-22T05:53:57.902Z,7.93
2017-11-22T05:56:25.373Z,7.60
2017-11-22T05:58:52.830Z,8.10
2017-11-22T06:01:20.298Z,5.27
2017-11-22T06:03:47.756Z,6.97
2017-11-22T06:06:15.229Z,7.93
2017-11-22T06:08:43.463Z,7.93
2017-11-22T06:11:10.937Z,10.30
2017-11-22T06:13:38.400Z,8.43
2017-11-22T06:16:05.881Z,12.10
2017-11-22T06:18:33.360Z,11.43
2017-11-22T06:21:01.851Z,8.43
2017-11-22T06:23:29.321Z,9.70
2017-11-22T06:25:56.785Z,11.33
2017-11-22T06:28:24.257Z,8.40
2017-11-22T06:30:51.712Z,9.50
2017-11-22T06:33:19.185Z,7.90
2017-11-22T06:35:47.416Z,10.13
2017-11-22T06:38:14.888Z,8.47
2017-11-22T06:40:42.356Z,10.83
2017-11-22T06:43:09.829Z,10.30
2017-11-22T06:45:37.292Z,10.07
2017-11-22T06:48:05.524Z,6.93
2017-11-22T06:50:32.993Z,7.20
2017-11-22T06:53:00.461Z,13.93
2017-11-22T06:55:27.925Z,9.23
2017-11-22T06:57:55.394Z,9.07
2017-11-22T07:00:23.617Z,8.00
2017-11-22T07:02:54.049Z,10.60
2017-11-22T07:05:21.509Z,9.40
2017-11-22T07:07:48.981Z,7.03
2017-11-22T07:10:16.449Z,8.10
2017-11-22T07:12:43.917Z,8.63
2017-11-22T07:15:11.411Z,11.47
2017-11-22T07:17:41.449Z,10.70
2017-11-22T07:20:09.678Z,7.50
2017-11-22T07:22:37.911Z,8.90
2017-11-22T07:25:06.140Z,10.20
2017-11-22T07:27:33.604Z,9.70
2017-11-22T07:30:01.070Z,12.33
2017-11-22T07:32:28.560Z,10.50
2017-11-22T07:34:56.013Z,9.30
2017-11-22T07:37:29.989Z,8.30
2017-11-22T07:39:57.446Z,9.53
2017-11-22T07:42:24.912Z,10.13
2017-11-22T07:44:52.385Z,6.77
2017-11-22T07:47:19.845Z,8.17
2017-11-22T07:49:47.313Z,3.80
2017-11-22T07:52:14.779Z,7.20
2017-11-22T07:54:43.173Z,6.70
2017-11-22T07:57:11.400Z,5.87
2017-11-22T07:59:38.876Z,7.37
2017-11-22T08:02:06.341Z,6.77
2017-11-22T08:04:33.829Z,6.10
2017-11-22T08:07:02.057Z,6.90
2017-11-22T08:09:30.301Z,7.80
2017-11-22T08:11:57.771Z,7.07
2017-11-22T08:14:25.241Z,7.30
2017-11-22T08:16:52.704Z,7.70
2017-11-22T08:19:20.176Z,4.00
2017-11-22T08:21:47.640Z,8.10
2017-11-22T08:24:15.117Z,6.47
2017-11-22T08:26:43.345Z,8.23
2017-11-22T08:29:11.233Z,6.83
2017-11-22T08:31:38.709Z,8.20
2017-11-22T08:34:06.181Z,7.80
2017-11-22T08:36:34.418Z,6.70
2017-11-22T08:39:01.890Z,6.33
2017-11-22T08:41:29.357Z,6.63
2017-11-22T08:43:56.836Z,7.40
2017-11-22T08:46:25.070Z,8.73
2017-11-22T08:48:52.542Z,8.07
2017-11-22T08:51:20.006Z,6.80
2017-11-22T08:53:48.244Z,7.40
2017-11-22T08:56:20.730Z,10.47
2017-11-22T08:58:49.002Z,9.30
2017-11-22T09:01:16.505Z,10.77
2017-11-22T09:03:44.733Z,10.37
2017-11-22T09:06:17.781Z,10.20
2017-11-22T09:08:45.246Z,4.50
2017-11-22T09:11:12.720Z,7.50
2017-11-22T09:13:40.185Z,8.23
2017-11-22T09:16:07.656Z,6.20
2017-11-22T09:18:39.100Z,8.23
2017-11-22T09:21:09.409Z,6.87
2017-11-22T09:23:36.874Z,6.80
2017-11-22T09:26:04.352Z,7.63
2017-11-22T09:28:31.826Z,7.80
2017-11-22T09:31:05.890Z,5.03
2017-11-22T09:33:33.353Z,6.70
2017-11-22T09:36:00.835Z,7.60
2017-11-22T09:38:28.306Z,6.40
2017-11-22T09:40:56.546Z,7.77
2017-11-22T09:43:24.009Z,6.60
2017-11-22T09:45:51.493Z,5.50
2017-11-22T09:48:19.729Z,7.43
2017-11-22T09:50:47.202Z,4.90
2017-11-22T09:53:14.661Z,6.03
2017-11-22T09:55:42.139Z,6.70
2017-11-22T09:58:09.610Z,7.17
2017-11-22T10:00:37.848Z,4.97
2017-11-22T10:03:05.309Z,8.70
2017-11-22T10:05:32.786Z,8.87
2017-11-22T10:08:01.021Z,7.43
2017-11-22T10:10:28.496Z,8.87
2017-11-22T10:12:55.961Z,8.63
2017-11-22T10:15:23.442Z,9.40
2017-11-22T10:17:51.673Z,9.80
2017-11-22T10:20:20.073Z,6.23
2017-11-22T10:22:47.536Z,10.20
2017-11-22T10:25:21.788Z,8.70
2017-11-22T10:27:54.877Z,10.07
2017-11-22T10:30:28.129Z,6.30
2017-11-22T10:32:55.592Z,8.07
2017-11-22T10:35:23.072Z,6.93
2017-11-22T10:37:50.537Z,5.63
2017-11-22T10:40:18.010Z,4.37
2017-11-22T10:42:45.568Z,8.13
2017-11-22T10:45:13.029Z,7.00
2017-11-22T10:47:40.508Z,7.60
2017-11-22T10:50:07.982Z,9.53
2017-11-22T10:52:35.493Z,9.60
2017-11-22T10:55:02.972Z,7.40
2017-11-22T10:57:30.441Z,6.47
2017-11-22T10:59:58.679Z,5.30
2017-11-22T11:02:26.160Z,8.43
2017-11-22T11:04:53.622Z,8.03
2017-11-22T11:07:21.100Z,8.10
2017-11-22T11:09:48.567Z,8.70
2017-11-22T11:12:16.045Z,8.83
2017-11-22T11:14:44.273Z,7.80
2017-11-22T11:17:11.777Z,8.13
2017-11-22T11:19:40.012Z,8.63
2017-11-22T11:22:07.488Z,8.63
2017-11-22T11:24:34.953Z,8.30
2017-11-22T11:27:03.201Z,8.87
2017-11-22T11:29:30.664Z,9.00
2017-11-22T11:31:58.149Z,7.63
2017-11-22T11:34:26.382Z,8.30
2017-11-22T11:36:53.861Z,9.00
2017-11-22T11:39:21.361Z,8.97
2017-11-22T11:41:48.819Z,8.00
2017-11-22T11:44:16.301Z,7.63
2017-11-22T11:46:43.769Z,8.00
2017-11-22T11:49:11.249Z,7.10
2017-11-22T11:51:38.717Z,8.23
2017-11-22T11:54:07.085Z,10.27
2017-11-22T11:56:34.556Z,10.30
2017-11-22T11:59:02.799Z,9.40
2017-11-22T12:01:30.257Z,7.97
2017-11-22T12:03:57.741Z,9.00
2017-11-22T12:06:25.207Z,7.77
2017-11-22T12:08:53.509Z,8.10
2017-11-22T12:11:20.984Z,7.93
2017-11-22T12:13:48.465Z,10.03
2017-11-22T12:16:15.931Z,6.73
2017-11-22T12:18:43.441Z,6.67
2017-11-22T12:21:13.373Z,9.90
2017-11-22T12:23:40.852Z,8.93
2017-11-22T12:26:08.310Z,5.67
2017-11-22T12:28:35.799Z,9.37
2017-11-22T12:31:04.029Z,8.77
2017-11-22T12:33:31.563Z,8.87
2017-11-22T12:35:59.025Z,11.37
2017-11-22T12:38:26.501Z,7.87
2017-11-22T12:40:53.978Z,7.30
2017-11-22T12:43:21.429Z,3.97
2017-11-22T12:45:48.940Z,10.10
2017-11-22T12:48:16.397Z,9.87
2017-11-22T12:50:43.877Z,8.87
2017-11-22T12:53:11.345Z,9.37
2017-11-22T12:55:38.817Z,9.93
2017-11-22T12:58:11.974Z,9.10
2017-11-22T13:00:39.457Z,9.67
2017-11-22T13:03:06.921Z,9.63
2017-11-22T13:05:34.392Z,8.17
2017-11-22T13:08:01.857Z,8.77
2017-11-22T13:10:30.105Z,11.70
2017-11-22T13:12:58.342Z,10.07
2017-11-22T13:15:25.826Z,9.37
2017-11-22T13:17:53.285Z,9.60
2017-11-22T13:20:21.537Z,10.17
2017-11-22T13:22:49.013Z,8.37
2017-11-22T13:25:16.491Z,8.00
2017-11-22T13:27:43.953Z,6.77
2017-11-22T13:30:11.428Z,8.80
2017-11-22T13:35:32.804Z,11.10
2017-11-22T13:38:00.280Z,8.43
2017-11-22T13:40:27.757Z,9.47
2017-11-22T13:42:55.230Z,8.63
2017-11-22T13:45:23.532Z,8.33
2017-11-22T13:47:51.061Z,7.80
2017-11-22T13:50:19.338Z,9.10
2017-11-22T13:52:47.569Z,8.60
2017-11-22T13:55:15.077Z,8.60
2017-11-22T13:57:42.544Z,7.30
2017-11-22T14:00:10.011Z,6.93
2017-11-22T14:02:37.477Z,9.07
2017-11-22T14:05:04.936Z,8.40
2017-11-22T14:07:32.422Z,6.77
2017-11-22T14:09:59.881Z,7.80
2017-11-22T14:12:27.357Z,7.43
2017-11-22T14:14:54.812Z,7.80
2017-11-22T14:17:22.282Z,7.00
2017-11-22T14:19:50.520Z,9.60
2017-11-22T14:22:17.984Z,8.47
2017-11-22T14:24:45.449Z,8.33
2017-11-22T14:27:12.920Z,6.80
2017-11-22T14:29:41.156Z,7.10
2017-11-22T14:32:08.633Z,7.17
2017-11-22T14:34:36.148Z,8.67
2017-11-22T14:37:04.388Z,8.40
2017-11-22T14:39:31.850Z,7.00
2017-11-22T14:42:00.094Z,8.47
2017-11-22T14:44:27.692Z,6.40
2017-11-22T14:46:55.348Z,7.03
2017-11-22T14:49:23.576Z,7.30
2017-11-22T14:51:51.057Z,8.53
2017-11-22T14:54:18.521Z,8.47
2017-11-22T14:56:45.996Z,11.50
2017-11-22T14:59:14.229Z,8.40
2017-11-22T15:01:41.700Z,7.80
2017-11-22T15:04:09.164Z,6.70
2017-11-22T15:06:36.653Z,8.60
2017-11-22T15:09:04.131Z,9.77
2017-11-22T15:11:31.606Z,8.57
2017-11-22T15:13:59.072Z,8.13
2017-11-22T15:16:26.545Z,7.13
2017-11-22T15:18:54.010Z,9.97
2017-11-22T15:21:21.477Z,11.00
2017-11-22T15:23:49.733Z,9.50
2017-11-22T15:26:17.245Z,10.27
2017-11-22T15:28:44.804Z,7.93
2017-11-22T15:31:12.266Z,7.70
2017-11-22T15:33:39.731Z,7.90
2017-11-22T15:36:07.207Z,15.33
2017-11-22T15:41:38.737Z,10.50
2017-11-22T15:44:06.308Z,9.60
2017-11-22T15:46:35.353Z,9.47
2017-11-22T15:49:02.820Z,9.30
2017-11-22T15:51:30.286Z,9.50
2017-11-22T15:53:57.761Z,10.23
2017-11-22T15:56:25.221Z,10.10
2017-11-22T15:58:52.738Z,10.80
2017-11-22T16:01:20.201Z,9.60
2017-11-22T16:03:47.670Z,9.50
2017-11-22T16:06:15.132Z,9.47
2017-11-22T16:08:43.475Z,8.70
2017-11-22T16:11:10.929Z,7.53
2017-11-22T16:13:38.503Z,9.30
2017-11-22T16:16:05.977Z,8.40
2017-11-22T16:18:33.444Z,7.53
2017-11-22T16:21:00.908Z,7.30
2017-11-22T16:23:28.430Z,8.80
2017-11-22T16:25:55.906Z,7.80
2017-11-22T16:28:23.369Z,8.67
2017-11-22T16:30:50.860Z,7.23
2017-11-22T16:33:18.321Z,9.27
2017-11-22T16:35:45.788Z,9.47
2017-11-22T16:38:13.354Z,8.83
2017-11-22T16:40:41.612Z,9.20
2017-11-22T16:43:09.266Z,8.50
2017-11-22T16:45:36.812Z,7.30
2017-11-22T16:48:05.098Z,7.63
2017-11-22T16:50:32.656Z,6.90
2017-11-22T16:53:00.124Z,8.30
2017-11-22T16:55:27.614Z,6.53
2017-11-22T16:57:55.125Z,5.87
2017-11-22T17:00:22.623Z,6.67
2017-11-22T17:02:50.077Z,7.53
2017-11-22T17:05:17.563Z,7.60
2017-11-22T17:07:45.057Z,7.20
2017-11-22T17:10:12.534Z,6.87
2017-11-22T17:12:40.778Z,7.33
2017-11-22T17:15:08.402Z,8.50
2017-11-22T17:17:36.062Z,7.77
2017-11-22T17:20:03.586Z,7.70
2017-11-22T17:22:31.828Z,7.27
2017-11-22T17:24:59.296Z,6.30
2017-11-22T17:27:27.068Z,6.63
2017-11-22T17:29:54.632Z,7.20
2017-11-22T17:32:22.135Z,7.23
2017-11-22T17:34:49.643Z,6.90
2017-11-22T17:37:17.178Z,7.30
2017-11-22T17:39:44.657Z,7.23
2017-11-22T17:42:12.177Z,6.60
2017-11-22T17:44:39.669Z,6.03
2017-11-22T17:47:07.145Z,7.73
2017-11-22T17:49:35.458Z,6.80
2017-11-22T17:52:03.336Z,7.27
2017-11-22T17:54:30.884Z,5.83
2017-11-22T17:56:58.393Z,7.10
2017-11-22T17:59:26.005Z,8.43
2017-11-22T18:01:53.560Z,6.57
2017-11-22T18:04:21.072Z,8.00
2017-11-22T18:06:48.543Z,6.00
2017-11-22T18:09:16.804Z,6.70
2017-11-22T18:11:44.295Z,7.10
2017-11-22T18:14:11.820Z,7.50
2017-11-22T18:16:39.313Z,6.93
2017-11-22T18:19:06.790Z,6.03
2017-11-22T18:21:34.261Z,6.80
2017-11-22T18:24:01.761Z,7.00
2017-11-22T18:26:30.187Z,6.00
2017-11-22T18:28:57.650Z,5.00
2017-11-22T18:31:25.126Z,6.10
2017-11-22T18:33:52.994Z,5.07
2017-11-22T18:36:20.795Z,5.90
2017-11-22T18:38:49.042Z,5.60
2017-11-22T18:41:16.596Z,6.20
2017-11-22T18:43:44.264Z,5.50
2017-11-22T18:46:11.781Z,6.23
2017-11-22T18:48:39.249Z,5.47
2017-11-22T18:51:06.756Z,5.53
2017-11-22T18:53:35.066Z,5.77
2017-11-22T18:56:02.535Z,4.47
2017-11-22T18:58:30.035Z,4.90
2017-11-22T19:00:57.498Z,6.13
2017-11-22T19:03:24.981Z,5.87
2017-11-22T19:05:53.054Z,5.60
2017-11-22T19:08:20.713Z,5.93
2017-11-22T19:10:48.773Z,5.73
2017-11-22T19:13:17.516Z,4.93
2017-11-22T19:15:44.980Z,5.70
2017-11-22T19:18:12.541Z,6.30
2017-11-22T19:20:40.237Z,5.50
2017-11-22T19:23:08.767Z,6.10
2017-11-22T19:25:36.265Z,5.43
2017-11-22T19:28:04.060Z,5.67
2017-11-22T19:30:31.960Z,6.07
2017-11-22T19:33:00.281Z,5.70
2017-11-22T19:35:28.849Z,7.00
2017-11-22T19:37:56.456Z,5.80
2017-11-22T19:40:24.115Z,5.60
2017-11-22T19:42:51.782Z,6.00
2017-11-22T19:45:19.393Z,7.00
2017-11-22T19:47:47.025Z,6.43
2017-11-22T19:50:14.596Z,7.10
2017-11-22T19:52:42.142Z,6.43
2017-11-22T19:55:09.750Z,6.70
2017-11-22T19:57:38.175Z,7.10
2017-11-22T20:00:06.024Z,6.83
2017-11-22T20:02:33.644Z,6.60
2017-11-22T20:05:01.981Z,6.80
2017-11-22T20:07:41.357Z,6.77
2017-11-22T20:10:09.052Z,6.13
2017-11-22T20:12:36.768Z,6.47
2017-11-22T20:15:04.713Z,6.57
2017-11-22T20:17:32.345Z,5.57
2017-11-22T20:20:02.401Z,6.27
2017-11-22T20:22:29.962Z,6.63
2017-11-22T20:24:57.453Z,5.97
2017-11-22T20:27:25.689Z,6.20
2017-11-22T20:29:53.366Z,5.80
2017-11-22T20:32:20.833Z,7.20
2017-11-22T20:34:49.091Z,5.90
2017-11-22T20:37:16.767Z,6.60
2017-11-22T20:39:44.322Z,7.03
2017-11-22T20:42:11.792Z,5.63
2017-11-22T20:44:39.337Z,5.93
2017-11-22T20:47:06.805Z,6.60
2017-11-22T20:49:34.268Z,5.90
2017-11-22T20:52:02.506Z,5.60
2017-11-22T20:54:29.971Z,6.40
2017-11-22T20:56:57.441Z,6.60
2017-11-22T20:59:24.911Z,7.20
2017-11-22T21:01:52.409Z,5.93
2017-11-22T21:04:19.878Z,6.43
2017-11-22T21:06:47.354Z,5.87
2017-11-22T21:09:14.812Z,5.50
2017-11-22T21:11:42.280Z,6.47
2017-11-22T21:14:09.740Z,5.60
2017-11-22T21:16:37.201Z,5.93
2017-11-22T21:19:04.677Z,5.80
2017-11-22T21:21:32.993Z,6.70
2017-11-22T21:24:00.537Z,7.50
2017-11-22T21:26:28.006Z,7.33
2017-11-22T21:28:55.649Z,7.67
2017-11-22T21:31:23.161Z,6.90
2017-11-22T21:33:50.637Z,6.90
2017-11-22T21:36:18.163Z,6.00
2017-11-22T21:38:45.657Z,6.20
2017-11-22T21:41:13.956Z,5.70
2017-11-22T21:43:42.155Z,5.77
2017-11-22T21:46:09.703Z,4.83
2017-11-22T21:48:37.211Z,6.00
2017-11-22T21:51:05.496Z,6.67
2017-11-22T21:53:33.050Z,6.23
2017-11-22T21:56:00.601Z,5.63
2017-11-22T21:58:28.065Z,5.53
2017-11-22T22:00:55.538Z,5.50
2017-11-22T22:03:23.797Z,5.30
2017-11-22T22:05:51.353Z,5.10
2017-11-22T22:08:19.121Z,6.70
2017-11-22T22:10:46.634Z,5.73
2017-11-22T22:13:14.510Z,5.50
2017-11-22T22:15:42.013Z,4.70
2017-11-22T22:18:10.515Z,4.57
2017-11-22T22:20:37.983Z,5.10
2017-11-22T22:23:05.529Z,4.07
2017-11-22T22:25:33.690Z,6.10
2017-11-22T22:28:01.922Z,5.00
2017-11-22T22:30:29.884Z,4.60
2017-11-22T22:32:57.829Z,5.33
2017-11-22T22:35:25.309Z,5.13
2017-11-22T22:37:53.411Z,5.70
2017-11-22T22:40:20.886Z,5.13
2017-11-22T22:42:49.113Z,4.83
2017-11-22T22:45:16.588Z,5.30
2017-11-22T22:47:44.821Z,4.63
2017-11-22T22:50:12.300Z,5.27
2017-11-22T22:52:39.780Z,4.20
2017-11-22T22:55:07.264Z,5.00
2017-11-22T22:57:35.493Z,4.23
2017-11-22T23:00:02.975Z,5.00
2017-11-22T23:02:30.485Z,4.60
2017-11-22T23:04:57.960Z,4.87
2017-11-22T23:07:25.434Z,4.30
2017-11-22T23:09:52.946Z,4.40
2017-11-22T23:12:20.405Z,6.13
2017-11-22T23:14:47.876Z,4.97
2017-11-22T23:17:15.338Z,4.63
2017-11-22T23:19:42.809Z,3.20
2017-11-22T23:22:10.274Z,3.60
2017-11-22T23:24:37.748Z,3.57
2017-11-22T23:27:05.205Z,3.47
2017-11-22T23:29:32.684Z,3.87
2017-11-22T23:32:00.914Z,3.30
2017-11-22T23:34:28.374Z,3.13
2017-11-22T23:36:55.828Z,2.97
2017-11-22T23:39:23.280Z,3.60
2017-11-22T23:41:51.337Z,2.80
2017-11-22T23:44:22.704Z,2.50
2017-11-22T23:46:50.218Z,2.83
2017-11-22T23:49:18.438Z,2.60
2017-11-22T23:51:45.913Z,2.73
2017-11-22T23:54:13.425Z,3.37
2017-11-22T23:56:40.885Z,3.20
2017-11-22T23:59:08.353Z,2.77
